Time;durP1;ratioP1;P1;durP2;ratioP2;P2;SDS_P1;SDS_P2;PMS_P1;PMS_P2;Temp;Humidity;BMP_temperature;BMP_pressure;BME280_temperature;BME280_humidity;BME280_pressure;Samples;Min_cycle;Max_cycle;Signal;HPM_P1;HPM_P2
2021/03/24 04:01:31;;;;;;;11.18;7.70;;;;;;;0.02;100.00;99433.72;1765699;78;21164;-63
2021/03/24 04:04:25;;;;;;;11.15;8.00;;;;;;;0.03;100.00;99433.24;1777710;79;21046;-64
2021/03/24 04:07:08;;;;;;;11.00;7.50;;;;;;;0.05;100.00;99439.05;1777595;79;21200;-64
2021/03/24 04:09:37;;;;;;;12.15;8.08;;;;;;;0.07;100.00;99444.36;1774207;79;21611;-64
2021/03/24 04:12:10;;;;;;;11.50;8.30;;;;;;;0.08;100.00;99441.35;1754154;79;21227;-64
2021/03/24 04:14:40;;;;;;;11.05;7.90;;;;;;;0.12;100.00;99447.34;1774249;79;21441;-65
2021/03/24 04:17:16;;;;;;;11.70;7.90;;;;;;;0.16;100.00;99447.88;1778509;79;21555;-65
2021/03/24 04:19:48;;;;;;;9.98;8.08;;;;;;;0.18;100.00;99437.81;1774802;79;20990;-65
2021/03/24 04:22:18;;;;;;;9.73;8.15;;;;;;;0.22;100.00;99443.00;1781436;79;20943;-64
2021/03/24 04:24:49;;;;;;;11.35;7.20;;;;;;;0.26;100.00;99448.66;1774706;79;21108;-64
2021/03/24 04:27:17;;;;;;;11.03;8.40;;;;;;;0.31;100.00;99449.56;1778733;79;21635;-64
2021/03/24 04:29:54;;;;;;;11.68;8.65;;;;;;;0.36;100.00;99466.61;1773477;79;21049;-64
2021/03/24 04:32:23;;;;;;;11.85;8.88;;;;;;;0.37;100.00;99464.38;1774192;79;21002;-64
2021/03/24 04:34:51;;;;;;;10.35;7.28;;;;;;;0.38;100.00;99459.13;1776398;79;21587;-64
2021/03/24 04:37:40;;;;;;;10.70;8.23;;;;;;;0.39;100.00;99455.61;1776748;79;21607;-65
2021/03/24 04:40:19;;;;;;;9.15;7.42;;;;;;;0.41;100.00;99456.27;1773909;79;21199;-64
2021/03/24 04:42:57;;;;;;;11.43;8.05;;;;;;;0.43;100.00;99459.99;1776207;79;21137;-66
2021/03/24 04:45:45;;;;;;;11.00;7.60;;;;;;;0.43;100.00;99463.36;1771710;79;21224;-65
2021/03/24 04:48:17;;;;;;;10.98;7.92;;;;;;;0.45;100.00;99461.92;1773268;79;21125;-67
2021/03/24 04:50:57;;;;;;;11.43;8.13;;;;;;;0.44;100.00;99466.25;1775016;79;20927;-70
2021/03/24 04:53:26;;;;;;;9.83;6.85;;;;;;;0.44;100.00;99471.86;1770073;79;21379;-67
2021/03/24 04:55:55;;;;;;;10.98;7.45;;;;;;;0.45;100.00;99474.27;1774781;79;21136;-67
2021/03/24 04:58:32;;;;;;;10.13;6.67;;;;;;;0.46;100.00;99470.78;1774072;79;21162;-66
2021/03/24 05:01:30;;;;;;;9.60;7.30;;;;;;;0.46;100.00;99476.39;1773220;79;22547;-67
2021/03/24 05:04:06;;;;;;;8.48;6.50;;;;;;;0.47;100.00;99482.65;1647105;85;21260;-67
2021/03/24 05:06:43;;;;;;;9.98;7.10;;;;;;;0.50;100.00;99482.05;1648074;85;21258;-67
2021/03/24 05:09:19;;;;;;;9.77;6.30;;;;;;;0.55;100.00;99472.98;1829183;78;22804;-66
2021/03/24 05:11:54;;;;;;;9.43;6.62;;;;;;;0.53;100.00;99477.46;1797873;78;21065;-68
2021/03/24 05:14:43;;;;;;;8.60;6.08;;;;;;;0.59;100.00;99477.37;1733961;80;22334;-66
2021/03/24 05:20:04;;;;;;;7.30;5.90;;;;;;;0.65;100.00;99472.50;1737096;81;21101;-67
2021/03/24 05:22:45;;;;;;;7.70;5.60;;;;;;;0.66;100.00;99470.27;1743201;81;20990;-68
2021/03/24 05:25:23;;;;;;;11.53;7.00;;;;;;;0.67;100.00;99476.20;1741357;81;21052;-66
2021/03/24 05:28:01;;;;;;;7.15;5.05;;;;;;;0.66;100.00;99483.09;1738261;81;22293;-66
2021/03/24 05:30:38;;;;;;;7.40;5.25;;;;;;;0.66;100.00;99488.70;1742318;81;20947;-66
2021/03/24 05:33:17;;;;;;;9.18;5.62;;;;;;;0.66;100.00;99488.22;1712174;81;21105;-65
2021/03/24 05:35:50;;;;;;;9.60;5.72;;;;;;;0.66;100.00;99494.62;1715296;81;21497;-66
2021/03/24 05:38:23;;;;;;;7.12;5.50;;;;;;;0.65;100.00;99495.59;1725920;81;21584;-66
2021/03/24 05:41:16;;;;;;;7.47;5.80;;;;;;;0.66;100.00;99493.83;1741957;81;22117;-64
2021/03/24 05:44:23;;;;;;;7.03;5.03;;;;;;;0.67;100.00;99499.28;1741623;81;21148;-66
2021/03/24 05:47:13;;;;;;;7.03;5.45;;;;;;;0.67;100.00;99498.80;1741970;81;21132;-64
2021/03/24 05:49:56;;;;;;;;;;;;;;;0.69;100.00;99499.48;1736225;81;21196;-65
2021/03/24 05:53:02;;;;;;;7.20;4.58;;;;;;;0.69;100.00;99502.53;1731849;81;20502;-66
2021/03/24 05:55:54;;;;;;;7.87;5.55;;;;;;;0.70;100.00;99500.30;1742827;80;22507;-67
2021/03/24 05:59:12;;;;;;;8.78;5.85;;;;;;;0.70;100.00;99501.58;1747098;81;21223;-67
2021/03/24 06:01:55;;;;;;;8.65;5.17;;;;;;;0.72;100.00;99514.61;1770679;80;21089;-66
2021/03/24 06:04:35;;;;;;;7.00;5.72;;;;;;;0.76;100.00;99505.33;1764291;80;20987;-67
2021/03/24 06:07:46;;;;;;;7.83;4.87;;;;;;;0.76;100.00;99497.63;1748324;81;21034;-66
2021/03/24 06:10:44;;;;;;;8.93;5.10;;;;;;;0.79;100.00;99499.93;1734417;81;22308;-67
2021/03/24 06:13:37;;;;;;;6.30;4.87;;;;;;;0.78;100.00;99503.45;1735759;81;21086;-67
2021/03/24 06:16:33;;;;;;;8.48;5.10;;;;;;;0.79;100.00;99507.15;1733012;81;21069;-66
2021/03/24 06:19:20;;;;;;;7.35;4.60;;;;;;;0.79;100.00;99507.63;1740570;81;21597;-67
2021/03/24 06:22:12;;;;;;;8.63;5.22;;;;;;;0.79;100.00;99502.02;1730451;81;21144;-64
2021/03/24 06:25:05;;;;;;;7.17;4.75;;;;;;;0.80;100.00;99504.94;1742744;81;21460;-66
2021/03/24 06:27:58;;;;;;;9.05;4.85;;;;;;;0.84;100.00;99511.41;1737478;81;21245;-65
2021/03/24 06:31:17;;;;;;;7.22;5.03;;;;;;;0.87;100.00;99512.42;1739113;81;21243;-66
2021/03/24 06:34:17;;;;;;;7.62;5.75;;;;;;;0.91;100.00;99515.48;1742156;81;21299;-66
2021/03/24 06:37:13;;;;;;;8.45;6.10;;;;;;;0.93;100.00;99521.30;1747030;81;21181;-65
2021/03/24 06:39:56;;;;;;;9.70;5.35;;;;;;;0.91;100.00;99525.75;1687463;81;21220;-65
2021/03/24 06:43:03;;;;;;;7.50;5.42;;;;;;;0.90;100.00;99527.99;1739128;81;21219;-65
2021/03/24 06:46:00;;;;;;;7.37;5.37;;;;;;;0.87;100.00;99533.39;1723176;81;21014;-66
2021/03/24 06:48:49;;;;;;;8.08;5.72;;;;;;;0.89;100.00;99541.78;1725749;81;21103;-66
2021/03/24 06:51:58;;;;;;;8.63;6.03;;;;;;;0.92;100.00;99546.64;1733791;81;21564;-66
2021/03/24 06:55:06;;;;;;;8.33;6.15;;;;;;;0.92;100.00;99546.64;1728104;81;21356;-67
2021/03/24 06:57:58;;;;;;;9.48;6.53;;;;;;;0.91;100.00;99556.09;1737612;81;21054;-66
2021/03/24 07:00:57;;;;;;;11.45;6.35;;;;;;;0.94;100.00;99558.84;1745316;81;21185;-66
2021/03/24 07:03:56;;;;;;;8.63;5.87;;;;;;;0.96;100.00;99563.38;1731865;81;21188;-66
2021/03/24 07:10:17;;;;;;;7.28;5.33;;;;;;;1.01;100.00;99563.76;1772209;80;21092;-64
2021/03/24 07:13:39;;;;;;;8.15;6.10;;;;;;;1.02;100.00;99560.23;1581514;90;21269;-68
2021/03/24 07:16:26;;;;;;;9.63;5.80;;;;;;;1.06;100.00;99569.75;1581672;90;21272;-65
2021/03/24 07:19:15;;;;;;;10.90;6.47;;;;;;;1.07;100.00;99573.48;1583211;90;21683;-65
2021/03/24 07:22:09;;;;;;;9.30;6.30;;;;;;;1.09;100.00;99565.16;1583367;90;21171;-66
2021/03/24 07:25:11;;;;;;;9.73;7.12;;;;;;;1.13;100.00;99577.23;1584095;90;21196;-67
2021/03/24 07:27:58;;;;;;;8.10;5.95;;;;;;;1.13;100.00;99576.76;1582666;88;21232;-66
2021/03/24 07:30:57;;;;;;;8.85;6.58;;;;;;;1.14;100.00;99585.30;1581730;90;21208;-66
2021/03/24 07:33:51;;;;;;;10.63;7.08;;;;;;;1.14;100.00;99586.58;1586177;90;21261;-66
2021/03/24 07:36:35;;;;;;;10.43;6.40;;;;;;;1.18;100.00;99591.77;1591005;82;21203;-65
2021/03/24 07:39:29;;;;;;;9.55;6.62;;;;;;;1.18;100.00;99592.57;1765739;79;21207;-66
2021/03/24 07:42:55;;;;;;;10.48;7.33;;;;;;;1.23;100.00;99605.46;1775288;80;21615;-66
2021/03/24 07:45:50;;;;;;;7.83;5.53;;;;;;;1.20;100.00;99591.94;1772747;80;21185;-67
2021/03/24 07:49:04;;;;;;;10.85;7.92;;;;;;;1.20;100.00;99593.70;1767686;79;21077;-66
2021/03/24 07:52:20;;;;;;;9.73;7.17;;;;;;;1.20;100.00;99593.23;1774896;79;21195;-66
2021/03/24 07:55:15;;;;;;;9.38;6.67;;;;;;;1.27;100.00;99599.10;1776779;80;21205;-66
2021/03/24 07:58:08;;;;;;;12.73;8.60;;;;;;;1.28;100.00;99595.58;1770581;79;22327;-66
2021/03/24 08:00:44;;;;;;;10.05;7.85;;;;;;;1.33;100.00;99599.84;1765270;80;21066;-68
2021/03/24 08:03:17;;;;;;;9.23;7.15;;;;;;;1.41;100.00;99596.89;1770451;80;21129;-66
2021/03/24 08:06:13;;;;;;;9.73;6.67;;;;;;;1.50;100.00;99595.23;1727424;81;21185;-67
2021/03/24 08:09:00;;;;;;;11.83;8.33;;;;;;;1.60;100.00;99597.78;1747934;80;21157;-67
2021/03/24 08:11:54;;;;;;;10.80;8.05;;;;;;;1.63;100.00;99592.34;1769252;79;21199;-65
2021/03/24 08:14:58;;;;;;;10.45;6.97;;;;;;;1.61;100.00;99596.83;1774930;79;21358;-64
2021/03/24 08:17:42;;;;;;;12.80;8.23;;;;;;;1.61;100.00;99595.06;1763969;80;21140;-65
2021/03/24 08:20:17;;;;;;;11.83;8.10;;;;;;;1.64;100.00;99597.35;1770840;79;21128;-64
2021/03/24 08:23:13;;;;;;;10.32;7.58;;;;;;;1.66;100.00;99590.30;1780721;79;21179;-66
2021/03/24 08:26:19;;;;;;;9.40;6.40;;;;;;;1.65;100.00;99592.54;1770079;79;21144;-64
2021/03/24 08:29:02;;;;;;;10.00;7.72;;;;;;;1.62;100.00;99579.16;1767898;79;21230;-63
2021/03/24 08:32:16;;;;;;;10.10;7.00;;;;;;;1.61;100.00;99579.64;1777032;80;21152;-64
2021/03/24 08:35:16;;;;;;;10.18;7.08;;;;;;;1.64;100.00;99589.64;1765130;79;21312;-65
2021/03/24 08:38:10;;;;;;;12.95;7.30;;;;;;;1.72;100.00;99567.58;1766805;80;21365;-63
2021/03/24 08:41:18;;;;;;;10.80;7.20;;;;;;;1.74;100.00;99574.64;1765711;79;22617;-65
2021/03/24 08:44:12;;;;;;;11.22;7.65;;;;;;;1.78;100.00;99575.98;1764569;79;21152;-64
2021/03/24 08:47:03;;;;;;;9.83;7.33;;;;;;;1.84;100.00;99572.37;1772194;80;21622;-63
2021/03/24 08:49:34;;;;;;;9.58;7.20;;;;;;;1.91;100.00;99579.03;1772096;80;21005;-64
2021/03/24 08:52:41;;;;;;;18.65;7.55;;;;;;;1.99;100.00;99579.12;1773124;80;21337;-64
2021/03/24 08:55:50;;;;;;;9.83;7.20;;;;;;;2.02;100.00;99578.84;1771213;80;21630;-63
2021/03/24 08:58:28;;;;;;;10.28;6.45;;;;;;;1.98;100.00;99565.94;1771172;80;21207;-62
2021/03/24 09:01:10;;;;;;;9.35;6.90;;;;;;;1.92;100.00;99567.31;1773998;80;21194;-63
2021/03/24 09:03:48;;;;;;;10.15;7.17;;;;;;;1.87;100.00;99573.85;1732777;81;21079;-62
2021/03/24 09:06:55;;;;;;;9.20;7.15;;;;;;;1.84;100.00;99560.80;1737020;80;21364;-63
2021/03/24 09:09:35;;;;;;;9.90;6.75;;;;;;;1.83;100.00;99570.75;1737253;80;21663;-64
2021/03/24 09:12:23;;;;;;;10.40;7.08;;;;;;;1.81;100.00;99575.70;1737227;80;21128;-63
2021/03/24 09:15:12;;;;;;;9.28;6.83;;;;;;;1.81;100.00;99569.27;1731926;81;21661;-64
2021/03/24 09:17:59;;;;;;;9.90;6.65;;;;;;;1.83;100.00;99572.52;1731569;81;21205;-63
2021/03/24 09:21:17;;;;;;;9.73;7.30;;;;;;;1.87;100.00;99577.70;1693392;80;21224;-64
2021/03/24 09:24:14;;;;;;;9.95;7.53;;;;;;;1.92;100.00;99574.22;1735777;81;21550;-65
2021/03/24 09:27:09;;;;;;;11.20;7.95;;;;;;;1.94;100.00;99566.70;1736747;80;21573;-65
2021/03/24 09:30:05;;;;;;;10.10;6.53;;;;;;;1.96;100.00;99571.69;1734900;80;21584;-66
2021/03/24 09:32:44;;;;;;;11.05;6.90;;;;;;;1.91;100.00;99575.17;1725765;80;21627;-65
2021/03/24 09:35:55;;;;;;;8.90;6.30;;;;;;;1.87;100.00;99571.28;1727636;81;21373;-64
2021/03/24 09:38:24;;;;;;;9.98;6.90;;;;;;;1.87;100.00;99566.14;1727450;81;22487;-65
2021/03/24 09:40:56;;;;;;;11.12;6.70;;;;;;;1.90;100.00;99593.65;1735136;80;21145;-63
2021/03/24 09:43:33;;;;;;;7.90;5.80;;;;;;;1.92;100.00;99569.08;1736990;82;21178;-64
2021/03/24 09:46:09;;;;;;;8.70;6.30;;;;;;;1.90;100.00;99574.37;1738369;80;21252;-63
2021/03/24 09:48:51;;;;;;;9.48;6.75;;;;;;;1.89;100.00;99579.64;1739514;81;21216;-63
2021/03/24 09:51:23;;;;;;;9.25;6.40;;;;;;;1.85;100.00;99575.26;1740201;80;21139;-65
2021/03/24 09:53:51;;;;;;;8.35;6.25;;;;;;;1.86;100.00;99580.75;1712564;83;21100;-65
2021/03/24 09:56:23;;;;;;;7.72;5.35;;;;;;;1.87;100.00;99581.56;1719114;82;21044;-64
2021/03/24 09:59:21;;;;;;;8.95;6.62;;;;;;;1.89;100.00;99570.16;1698306;82;27149;-63
2021/03/24 10:02:04;;;;;;;9.50;7.40;;;;;;;1.86;100.00;99581.23;1716175;82;21243;-65
2021/03/24 10:04:53;;;;;;;10.85;6.90;;;;;;;1.81;100.00;99579.55;1704597;82;21187;-63
2021/03/24 10:07:26;;;;;;;10.35;7.35;;;;;;;1.84;100.00;99590.83;1714131;82;21086;-62
2021/03/24 10:10:24;;;;;;;9.30;6.92;;;;;;;1.87;100.00;99593.12;1672598;82;21159;-64
2021/03/24 10:13:26;;;;;;;8.95;6.92;;;;;;;1.87;100.00;99599.55;1716382;82;21004;-63
2021/03/24 10:16:14;;;;;;;8.75;6.55;;;;;;;1.86;100.00;99587.18;1686688;84;21383;-63
2021/03/24 10:18:56;;;;;;;9.48;6.25;;;;;;;1.89;100.00;99589.92;1726776;82;21012;-63
2021/03/24 10:21:48;;;;;;;9.58;6.33;;;;;;;1.89;100.00;99588.63;1729283;82;21174;-63
2021/03/24 10:24:23;;;;;;;9.23;6.37;;;;;;;1.90;100.00;99581.28;1730782;81;21970;-63
2021/03/24 10:27:06;;;;;;;9.00;6.90;;;;;;;1.90;100.00;99591.08;1728961;82;21032;-64
2021/03/24 10:29:48;;;;;;;9.40;6.80;;;;;;;1.94;100.00;99590.31;1723817;82;21436;-64
2021/03/24 10:32:33;;;;;;;8.58;6.10;;;;;;;1.99;100.00;99590.69;1728558;82;21966;-64
2021/03/24 10:35:30;;;;;;;9.18;6.53;;;;;;;2.04;100.00;99585.91;1725758;82;21582;-63
2021/03/24 10:38:15;;;;;;;9.03;6.55;;;;;;;2.05;100.00;99584.98;1727978;82;21563;-63
2021/03/24 10:40:48;;;;;;;8.80;6.58;;;;;;;2.08;100.00;99585.14;1725242;81;21250;-62
2021/03/24 10:43:22;;;;;;;;;;;;;;;2.06;100.00;99586.59;1727351;82;21346;-62
2021/03/24 10:46:12;;;;;;;8.73;6.30;;;;;;;2.04;100.00;99585.91;1724027;82;20634;-62
2021/03/24 10:49:01;;;;;;;9.88;7.00;;;;;;;2.02;100.00;99587.03;1726373;82;21624;-63
2021/03/24 10:51:40;;;;;;;10.93;6.53;;;;;;;2.00;100.00;99583.78;1665779;82;21128;-61
2021/03/24 10:54:19;;;;;;;8.65;6.58;;;;;;;1.99;100.00;99588.11;1728432;82;21231;-62
2021/03/24 10:57:16;;;;;;;10.48;6.75;;;;;;;2.00;100.00;99583.30;1728578;82;21207;-62
2021/03/24 11:00:07;;;;;;;9.58;6.90;;;;;;;2.02;100.00;99581.41;1728222;82;21178;-61
2021/03/24 11:03:00;;;;;;;8.63;6.20;;;;;;;1.99;100.00;99587.31;1725869;82;21188;-62
2021/03/24 11:05:52;;;;;;;10.13;7.30;;;;;;;1.96;100.00;99590.97;1728674;82;21233;-62
2021/03/24 11:08:41;;;;;;;9.58;7.60;;;;;;;1.99;100.00;99597.11;1728552;82;21151;-63
2021/03/24 11:11:27;;;;;;;10.10;6.62;;;;;;;2.00;100.00;99600.00;1716594;82;21025;-63
2021/03/24 11:14:16;;;;;;;9.95;6.83;;;;;;;1.95;100.00;99600.44;1724852;81;21210;-63
2021/03/24 11:16:58;;;;;;;10.48;7.83;;;;;;;1.90;100.00;99591.08;1741684;81;21224;-63
2021/03/24 11:19:39;;;;;;;10.93;7.70;;;;;;;1.85;100.00;99596.30;1741370;81;21152;-62
2021/03/24 11:22:26;;;;;;;12.30;8.85;;;;;;;1.86;100.00;99606.94;1726421;81;21234;-64
2021/03/24 11:25:13;;;;;;;10.20;7.42;;;;;;;1.86;100.00;99609.50;1740700;81;21213;-63
2021/03/24 11:27:45;;;;;;;9.58;7.15;;;;;;;1.88;100.00;99602.44;1690011;81;21235;-63
2021/03/24 11:30:38;;;;;;;12.05;8.98;;;;;;;1.90;100.00;99594.12;1708793;82;21229;-62
2021/03/24 11:33:18;;;;;;;9.48;7.12;;;;;;;1.92;100.00;99600.72;1743755;81;21639;-62
2021/03/24 11:36:04;;;;;;;10.00;7.87;;;;;;;1.97;100.00;99591.32;1743227;81;21639;-62
2021/03/24 11:39:02;;;;;;;11.12;8.48;;;;;;;1.97;100.00;99590.03;1740435;81;21283;-62
2021/03/24 11:41:35;;;;;;;11.33;8.20;;;;;;;1.91;100.00;99597.02;1741861;81;21030;-65
2021/03/24 11:44:12;;;;;;;10.70;8.33;;;;;;;1.85;100.00;99611.72;1743185;81;21228;-62
2021/03/24 11:46:48;;;;;;;11.50;9.43;;;;;;;1.78;100.00;99611.95;1743558;81;21670;-62
2021/03/24 11:50:00;;;;;;;12.60;9.10;;;;;;;1.75;100.00;99619.97;1742801;81;21618;-64
2021/03/24 11:53:02;;;;;;;12.65;9.80;;;;;;;1.74;100.00;99626.03;1741444;81;21206;-61
2021/03/24 11:55:53;;;;;;;11.80;8.68;;;;;;;1.72;100.00;99628.76;1742357;81;21229;-62
2021/03/24 11:58:47;;;;;;;12.05;9.20;;;;;;;1.67;100.00;99630.47;1744173;81;28741;-62
2021/03/24 12:01:42;;;;;;;12.18;8.95;;;;;;;1.62;100.00;99635.20;1655075;85;21177;-65
2021/03/24 12:04:55;;;;;;;11.77;9.23;;;;;;;1.63;100.00;99639.41;1824998;77;23435;-64
2021/03/24 12:07:48;;;;;;;13.83;8.80;;;;;;;1.56;100.00;99638.35;1796125;79;21501;-64
2021/03/24 12:10:32;;;;;;;11.03;7.83;;;;;;;1.50;100.00;99642.75;1797423;79;21206;-66
2021/03/24 12:13:19;;;;;;;12.65;8.63;;;;;;;1.42;100.00;99643.93;1783157;78;21046;-66
2021/03/24 12:16:07;;;;;;;13.62;9.78;;;;;;;1.41;100.00;99653.88;1797637;79;21029;-64
2021/03/24 12:18:54;;;;;;;11.60;8.40;;;;;;;1.43;100.00;99649.39;1794623;79;21086;-64
2021/03/24 12:24:35;;;;;;;12.83;8.10;;;;;;;1.45;100.00;99647.03;1803586;78;22829;-66
2021/03/24 12:27:11;;;;;;;11.90;8.08;;;;;;;1.44;100.00;99654.88;1788635;79;20943;-66
2021/03/24 12:29:44;;;;;;;11.70;8.08;;;;;;;1.41;100.00;99658.53;1796164;79;21188;-67
2021/03/24 12:32:22;;;;;;;13.05;9.45;;;;;;;1.41;100.00;99664.95;1795057;79;20994;-69
2021/03/24 12:34:51;;;;;;;13.95;8.55;;;;;;;1.41;100.00;99664.95;1800815;79;21587;-68
2021/03/24 12:37:43;;;;;;;13.60;9.20;;;;;;;1.43;100.00;99669.94;1791765;79;21019;-68
2021/03/24 12:40:18;;;;;;;15.08;10.40;;;;;;;1.52;100.00;99672.97;1800151;77;21066;-65
2021/03/24 12:42:47;;;;;;;12.40;9.20;;;;;;;1.58;100.00;99678.02;1795210;79;21026;-65
2021/03/24 12:45:29;;;;;;;11.83;8.20;;;;;;;1.66;100.00;99666.08;1761113;79;21001;-66
2021/03/24 12:48:22;;;;;;;12.43;8.80;;;;;;;1.82;100.00;99668.08;1827807;77;23814;-66
2021/03/24 12:51:04;;;;;;;12.35;9.45;;;;;;;1.85;100.00;99678.05;1765211;78;21614;-66
2021/03/24 12:53:49;;;;;;;11.57;7.70;;;;;;;1.90;100.00;99678.46;1791224;79;21274;-66
2021/03/24 12:56:22;;;;;;;11.08;8.10;;;;;;;1.85;100.00;99673.39;1804115;79;21019;-65
2021/03/24 12:58:57;;;;;;;10.58;8.20;;;;;;;1.77;100.00;99666.39;1738301;80;21154;-65
2021/03/24 13:01:52;;;;;;;11.78;8.20;;;;;;;1.70;100.00;99668.73;1701509;82;21018;-66
2021/03/24 13:04:53;;;;;;;14.58;7.35;;;;;;;1.64;100.00;99669.28;1744150;82;21093;-66
2021/03/24 13:07:40;;;;;;;12.35;8.05;;;;;;;1.56;100.00;99660.19;1733843;81;21206;-66
2021/03/24 13:10:32;;;;;;;10.28;7.42;;;;;;;1.49;100.00;99668.11;1772982;80;21074;-66
2021/03/24 13:13:18;;;;;;;9.95;7.42;;;;;;;1.48;100.00;99670.80;1743527;82;20967;-66
2021/03/24 13:16:12;;;;;;;10.88;7.85;;;;;;;1.42;100.00;99666.56;1727408;82;21573;-65
2021/03/24 13:18:52;;;;;;;12.43;8.03;;;;;;;1.37;100.00;99667.46;1744064;82;21024;-66
2021/03/24 13:21:47;;;;;;;10.48;7.33;;;;;;;1.28;100.00;99668.75;1730669;80;22165;-66
2021/03/24 13:24:49;;;;;;;12.70;7.45;;;;;;;1.21;100.00;99664.19;1731322;81;21227;-66
2021/03/24 13:27:27;;;;;;;10.85;7.83;;;;;;;1.15;100.00;99667.77;1725999;81;21272;-66
2021/03/24 13:30:17;;;;;;;9.95;7.12;;;;;;;1.07;100.00;99666.36;1727338;81;21160;-64
2021/03/24 13:33:12;;;;;;;9.23;6.78;;;;;;;1.02;100.00;99671.88;1721224;81;21215;-63
2021/03/24 13:35:55;;;;;;;9.88;7.08;;;;;;;0.96;100.00;99672.44;1722914;81;21070;-65
2021/03/24 13:38:51;;;;;;;9.78;6.87;;;;;;;0.90;100.00;99684.03;1725758;81;21588;-64
2021/03/24 13:41:19;;;;;;;10.63;7.47;;;;;;;0.85;100.00;99677.22;1737078;81;21618;-66
2021/03/24 13:43:58;;;;;;;10.72;8.10;;;;;;;0.82;100.00;99676.68;1752913;80;21193;-66
2021/03/24 13:46:30;;;;;;;10.28;7.78;;;;;;;0.76;100.00;99670.34;1763299;80;21619;-66
2021/03/24 13:49:16;;;;;;;11.08;7.40;;;;;;;0.72;100.00;99681.34;1755264;80;21213;-65
2021/03/24 13:51:44;;;;;;;10.88;7.58;;;;;;;0.66;100.00;99684.91;1740200;80;21229;-65
2021/03/24 13:54:37;;;;;;;11.95;8.40;;;;;;;0.60;100.00;99681.11;1702975;80;21218;-66
2021/03/24 13:57:35;;;;;;;9.98;7.45;;;;;;;0.57;100.00;99681.40;1710764;80;22073;-66
2021/03/24 14:00:32;;;;;;;9.05;6.87;;;;;;;0.53;100.00;99685.17;1738990;80;21576;-67
2021/03/24 14:03:41;;;;;;;11.85;8.15;;;;;;;0.49;100.00;99682.50;1759419;80;21225;-66
2021/03/24 14:06:24;;;;;;;12.25;8.03;;;;;;;0.44;100.00;99681.63;1745434;80;21327;-68
2021/03/24 14:09:19;;;;;;;10.85;7.75;;;;;;;0.36;100.00;99681.95;1756305;81;21584;-68
2021/03/24 14:11:57;;;;;;;10.82;7.72;;;;;;;0.29;100.00;99677.01;1758856;80;21517;-72
2021/03/24 14:15:16;;;;;;;10.95;7.62;;;;;;;0.24;100.00;99680.78;1711917;82;21050;-70
2021/03/24 14:18:21;;;;;;;12.10;7.65;;;;;;;0.18;100.00;99678.72;1741122;81;21403;-70
2021/03/24 14:21:20;;;;;;;11.40;7.80;;;;;;;0.14;100.00;99687.61;1725660;82;21221;-71
2021/03/24 14:24:16;;;;;;;12.40;7.92;;;;;;;0.12;100.00;99685.67;1722118;82;21488;-71
2021/03/24 14:26:57;;;;;;;11.95;7.85;;;;;;;0.12;100.00;99686.95;1786668;79;21057;-70
2021/03/24 14:29:47;;;;;;;10.25;7.42;;;;;;;0.11;100.00;99689.63;1725776;80;21150;-71
2021/03/24 14:32:47;;;;;;;11.08;7.83;;;;;;;0.08;100.00;99694.56;1755834;80;22288;-70
2021/03/24 14:35:52;;;;;;;12.88;7.95;;;;;;;0.07;100.00;99693.39;1744524;80;21677;-71
2021/03/24 14:38:35;;;;;;;10.20;7.78;;;;;;;0.06;100.00;99692.58;1739763;80;21671;-73
2021/03/24 14:41:24;;;;;;;11.65;8.20;;;;;;;0.05;100.00;99694.00;1743550;80;21221;-68
2021/03/24 14:44:10;;;;;;;12.25;7.62;;;;;;;0.03;100.00;99692.84;1739460;80;21222;-71
2021/03/24 14:47:13;;;;;;;12.30;9.00;;;;;;;0.03;100.00;99696.67;1744223;81;22421;-71
2021/03/24 14:50:21;;;;;;;11.10;8.28;;;;;;;0.02;100.00;99697.63;1740903;81;26494;-73
2021/03/24 14:52:55;;;;;;;12.65;8.80;;;;;;;0.04;100.00;99700.89;1737489;81;21098;-74
2021/03/24 14:55:36;;;;;;;11.55;8.18;;;;;;;0.03;100.00;99698.44;1737112;81;21596;-72
2021/03/24 14:58:31;;;;;;;11.75;8.03;;;;;;;0.03;100.00;99705.65;1794471;78;22301;-71
2021/03/24 15:01:21;;;;;;;12.98;8.78;;;;;;;0.03;100.00;99711.24;1762315;78;22666;-70
2021/03/24 15:03:50;;;;;;;11.70;7.83;;;;;;;0.02;100.00;99710.91;1793007;78;21244;-70
2021/03/24 15:06:29;;;;;;;13.58;8.48;;;;;;;0.01;100.00;99710.11;1790275;78;21244;-70
2021/03/24 15:08:59;;;;;;;15.58;9.80;;;;;;;0.03;100.00;99712.52;1766853;80;21090;-71
2021/03/24 15:11:50;;;;;;;14.70;8.70;;;;;;;0.03;100.00;99721.50;1768947;80;20982;-68
2021/03/24 15:14:55;;;;;;;12.23;8.50;;;;;;;0.02;100.00;99718.59;1797798;79;21373;-69
2021/03/24 15:17:41;;;;;;;14.05;8.98;;;;;;;0.02;100.00;99715.56;1794288;79;20994;-70
2021/03/24 15:20:32;;;;;;;13.72;8.50;;;;;;;0.03;100.00;99715.89;1791727;79;21006;-70
2021/03/24 15:23:27;;;;;;;11.70;8.38;;;;;;;0.02;100.00;99714.28;1792078;78;25121;-71
2021/03/24 15:26:01;;;;;;;14.03;8.05;;;;;;;0.02;100.00;99711.72;1790635;79;21274;-71
2021/03/24 15:28:38;;;;;;;12.68;8.38;;;;;;;0.03;100.00;99715.09;1678416;82;21388;-72
2021/03/24 15:31:50;;;;;;;14.73;9.08;;;;;;;0.03;100.00;99713.81;1770968;80;21196;-72
2021/03/24 15:34:36;;;;;;;13.78;8.70;;;;;;;0.02;100.00;99712.20;1768353;80;21642;-73
2021/03/24 15:37:32;;;;;;;11.35;7.62;;;;;;;0.01;100.00;99710.11;1770780;80;21538;-72
2021/03/24 15:40:51;;;;;;;11.50;7.92;;;;;;;0.01;100.00;99720.36;1791786;78;21673;-70
2021/03/24 15:43:37;;;;;;;10.80;7.47;;;;;;;0.01;100.00;99721.64;1786613;78;21213;-70
2021/03/24 15:46:17;;;;;;;10.93;7.37;;;;;;;0.01;100.00;99723.39;1798673;79;21241;-71
2021/03/24 15:49:01;;;;;;;11.73;7.80;;;;;;;-0.03;100.00;99718.98;1792548;79;21184;-73
2021/03/24 15:51:38;;;;;;;11.50;7.85;;;;;;;-0.04;100.00;99721.19;1801167;78;21126;-70
2021/03/24 15:54:29;;;;;;;12.88;8.43;;;;;;;-0.06;100.00;99723.08;1740999;82;21629;-71
2021/03/24 15:57:10;;;;;;;11.70;7.37;;;;;;;-0.06;100.00;99733.33;1720971;81;21286;-70
2021/03/24 15:59:47;;;;;;;14.58;9.35;;;;;;;-0.09;100.00;99729.73;1744433;80;21169;-71
2021/03/24 16:02:40;;;;;;;11.93;7.70;;;;;;;-0.09;100.00;99728.45;1723332;81;21208;-74
2021/03/24 16:05:33;;;;;;;;;;;;;;;-0.10;100.00;99720.44;1748428;81;21220;-74
2021/03/24 16:08:29;;;;;;;;;;;;;;;-0.12;100.00;99735.91;1754547;81;20307;-71
2021/03/24 16:11:22;;;;;;;12.45;7.92;;;;;;;-0.14;100.00;99737.81;1601676;88;22654;-71
2021/03/24 16:13:54;;;;;;;;;;;;;;;-0.15;100.00;99731.52;1612953;87;21211;-71
2021/03/24 16:16:49;;;;;;;12.25;8.08;;;;;;;-0.17;100.00;99737.25;1608540;87;20301;-70
2021/03/24 16:19:38;;;;;;;11.63;8.63;;;;;;;-0.17;100.00;99734.69;1635249;87;21202;-68
2021/03/24 16:22:39;;;;;;;13.25;8.58;;;;;;;-0.17;100.00;99738.06;1638067;86;22489;-68
2021/03/24 16:25:18;;;;;;;12.55;8.25;;;;;;;-0.15;100.00;99732.35;1638896;86;21408;-68
2021/03/24 16:28:34;;;;;;;11.97;8.28;;;;;;;-0.15;100.00;99732.80;1635283;86;21682;-68
2021/03/24 16:31:29;;;;;;;12.33;8.45;;;;;;;-0.16;100.00;99735.83;1725340;81;21243;-68
2021/03/24 16:34:13;;;;;;;11.10;7.85;;;;;;;-0.15;100.00;99736.64;1689652;81;21873;-69
2021/03/24 16:37:16;;;;;;;10.95;7.55;;;;;;;-0.17;100.00;99735.97;1680450;81;21145;-68
2021/03/24 16:40:29;;;;;;;10.98;7.30;;;;;;;-0.18;100.00;99742.84;1729620;81;21404;-68
2021/03/24 16:43:24;;;;;;;11.35;8.48;;;;;;;-0.19;100.00;99739.11;1727729;81;21245;-66
2021/03/24 16:46:36;;;;;;;11.45;7.97;;;;;;;-0.19;100.00;99744.23;1724438;81;21202;-65
2021/03/24 16:49:14;;;;;;;;;;;;;;;-0.20;100.00;99747.27;1724581;81;21107;-64
2021/03/24 16:52:18;;;;;;;10.50;7.28;;;;;;;-0.19;100.00;99749.36;1722240;81;20264;-65
2021/03/24 16:55:02;;;;;;;10.13;7.47;;;;;;;-0.21;100.00;99753.34;1712614;82;22724;-62
2021/03/24 16:57:48;;;;;;;10.50;7.20;;;;;;;-0.20;100.00;99754.15;1712528;81;21519;-62
2021/03/24 17:00:22;;;;;;;9.38;6.28;;;;;;;-0.19;100.00;99753.20;1725548;81;21068;-61
2021/03/24 17:03:02;;;;;;;10.13;7.33;;;;;;;-0.19;100.00;99747.64;1723062;81;21019;-66
2021/03/24 17:05:59;;;;;;;9.38;7.22;;;;;;;-0.19;100.00;99753.20;1725035;81;21142;-65
2021/03/24 17:08:45;;;;;;;9.25;6.22;;;;;;;-0.19;100.00;99748.08;1722500;81;21207;-62
2021/03/24 17:11:55;;;;;;;9.10;6.58;;;;;;;-0.19;100.00;99744.23;1721108;81;21615;-62
2021/03/24 17:15:01;;;;;;;10.53;7.00;;;;;;;-0.18;100.00;99752.28;1724404;81;21610;-62
2021/03/24 17:18:11;;;;;;;9.05;6.28;;;;;;;-0.16;100.00;99751.67;1722026;81;21605;-62